sensor_id;sensor_type;location;lat;lon;timestamp;pressure;altitude;pressure_sealevel;temperature;humidity
67738;BME280;54534;43.612;1.572;2023-04-27T00:00:11;99153.88;;;19.25;53.88
67738;BME280;54534;43.612;1.572;2023-04-27T00:02:37;99146.88;;;19.24;53.96
67738;BME280;54534;43.612;1.572;2023-04-27T00:05:03;99152.31;;;19.22;53.83
67738;BME280;54534;43.612;1.572;2023-04-27T00:07:29;99162.00;;;19.23;53.96
67738;BME280;54534;43.612;1.572;2023-04-27T00:09:55;99159.34;;;19.23;53.78
67738;BME280;54534;43.612;1.572;2023-04-27T00:12:20;99148.69;;;19.23;53.84
67738;BME280;54534;43.612;1.572;2023-04-27T00:14:46;99137.16;;;19.23;53.75
67738;BME280;54534;43.612;1.572;2023-04-27T00:17:11;99146.97;;;19.22;53.85
67738;BME280;54534;43.612;1.572;2023-04-27T00:19:37;99140.78;;;19.22;53.86
67738;BME280;54534;43.612;1.572;2023-04-27T00:22:03;99140.78;;;19.22;53.77
67738;BME280;54534;43.612;1.572;2023-04-27T00:24:29;99139.97;;;19.21;53.98
67738;BME280;54534;43.612;1.572;2023-04-27T00:26:54;99139.97;;;19.21;53.84
67738;BME280;54534;43.612;1.572;2023-04-27T00:29:19;99139.97;;;19.21;53.92
67738;BME280;54534;43.612;1.572;2023-04-27T00:31:45;99136.47;;;19.21;53.96
67738;BME280;54534;43.612;1.572;2023-04-27T00:34:10;99135.47;;;19.22;53.86
67738;BME280;54534;43.612;1.572;2023-04-27T00:36:36;99130.13;;;19.22;53.99
67738;BME280;54534;43.612;1.572;2023-04-27T00:39:02;99118.66;;;19.21;53.86
67738;BME280;54534;43.612;1.572;2023-04-27T00:41:28;99114.28;;;19.20;54.03
67738;BME280;54534;43.612;1.572;2023-04-27T00:43:53;99118.66;;;19.21;53.96
67738;BME280;54534;43.612;1.572;2023-04-27T00:46:19;99112.47;;;19.21;53.83
67738;BME280;54534;43.612;1.572;2023-04-27T00:48:45;99116.94;;;19.20;53.96
67738;BME280;54534;43.612;1.572;2023-04-27T00:51:11;99119.63;;;19.20;53.93
67738;BME280;54534;43.612;1.572;2023-04-27T00:53:36;99116.25;;;19.18;54.11
67738;BME280;54534;43.612;1.572;2023-04-27T00:56:06;99122.28;;;19.20;54.02
67738;BME280;54534;43.612;1.572;2023-04-27T00:58:32;99117.16;;;19.17;54.00
67738;BME280;54534;43.612;1.572;2023-04-27T01:00:58;99115.25;;;19.19;54.10
67738;BME280;54534;43.612;1.572;2023-04-27T01:03:25;99105.44;;;19.20;54.08
67738;BME280;54534;43.612;1.572;2023-04-27T01:05:50;99106.50;;;19.17;53.99
67738;BME280;54534;43.612;1.572;2023-04-27T01:08:16;99116.25;;;19.18;53.87
67738;BME280;54534;43.612;1.572;2023-04-27T01:10:41;99115.34;;;19.18;53.95
67738;BME280;54534;43.612;1.572;2023-04-27T01:13:07;99117.16;;;19.17;53.98
67738;BME280;54534;43.612;1.572;2023-04-27T01:15:32;99118.91;;;19.18;54.15
67738;BME280;54534;43.612;1.572;2023-04-27T01:17:58;99127.84;;;19.17;53.94
67738;BME280;54534;43.612;1.572;2023-04-27T01:20:24;99133.16;;;19.17;54.12
67738;BME280;54534;43.612;1.572;2023-04-27T01:22:57;99129.66;;;19.17;54.14
67738;BME280;54534;43.612;1.572;2023-04-27T01:25:23;99135.81;;;19.17;53.88
67738;BME280;54534;43.612;1.572;2023-04-27T01:27:48;99136.81;;;19.16;54.07
67738;BME280;54534;43.612;1.572;2023-04-27T01:30:14;99131.50;;;19.16;54.02
67738;BME280;54534;43.612;1.572;2023-04-27T01:32:40;99126.28;;;19.15;54.01
67738;BME280;54534;43.612;1.572;2023-04-27T01:35:06;99120.09;;;19.14;54.08
67738;BME280;54534;43.612;1.572;2023-04-27T01:37:32;99128.09;;;19.14;54.14
67738;BME280;54534;43.612;1.572;2023-04-27T01:39:58;99129.06;;;19.13;54.17
67738;BME280;54534;43.612;1.572;2023-04-27T01:42:23;99118.41;;;19.13;54.13
67738;BME280;54534;43.612;1.572;2023-04-27T01:44:48;99115.59;;;19.15;54.12
67738;BME280;54534;43.612;1.572;2023-04-27T01:47:14;99110.41;;;19.13;53.99
67738;BME280;54534;43.612;1.572;2023-04-27T01:49:41;99113.09;;;19.13;53.93
67738;BME280;54534;43.612;1.572;2023-04-27T01:52:06;99122.75;;;19.14;53.96
67738;BME280;54534;43.612;1.572;2023-04-27T01:54:32;99133.41;;;19.14;54.03
67738;BME280;54534;43.612;1.572;2023-04-27T01:56:57;99127.22;;;19.14;54.08
67738;BME280;54534;43.612;1.572;2023-04-27T01:59:23;99121.09;;;19.13;53.99
67738;BME280;54534;43.612;1.572;2023-04-27T02:01:48;99119.25;;;19.14;53.74
67738;BME280;54534;43.612;1.572;2023-04-27T02:04:14;99121.91;;;19.14;53.86
67738;BME280;54534;43.612;1.572;2023-04-27T02:06:39;99117.44;;;19.14;54.06
67738;BME280;54534;43.612;1.572;2023-04-27T02:09:05;99112.09;;;19.14;53.89
67738;BME280;54534;43.612;1.572;2023-04-27T02:11:31;99110.41;;;19.13;53.65
67738;BME280;54534;43.612;1.572;2023-04-27T02:13:56;99105.91;;;19.14;53.72
67738;BME280;54534;43.612;1.572;2023-04-27T02:16:22;99097.34;;;19.10;53.93
67738;BME280;54534;43.612;1.572;2023-04-27T02:18:47;99100.72;;;19.12;53.92
67738;BME280;54534;43.612;1.572;2023-04-27T02:21:13;99110.41;;;19.13;53.60
67738;BME280;54534;43.612;1.572;2023-04-27T02:23:38;99111.38;;;19.12;53.88
67738;BME280;54534;43.612;1.572;2023-04-27T02:26:04;99115.75;;;19.13;53.97
67738;BME280;54534;43.612;1.572;2023-04-27T02:28:30;99115.00;;;19.11;53.88
67738;BME280;54534;43.612;1.572;2023-04-27T02:30:56;99113.19;;;19.11;53.74
67738;BME280;54534;43.612;1.572;2023-04-27T02:33:22;99114.91;;;19.12;53.78
67738;BME280;54534;43.612;1.572;2023-04-27T02:35:47;99110.53;;;19.11;53.93
67738;BME280;54534;43.612;1.572;2023-04-27T02:38:13;99107.03;;;19.11;53.91
67738;BME280;54534;43.612;1.572;2023-04-27T02:40:38;99108.72;;;19.12;53.73
67738;BME280;54534;43.612;1.572;2023-04-27T02:43:03;99104.34;;;19.11;53.95
67738;BME280;54534;43.612;1.572;2023-04-27T02:45:29;99100.00;;;19.10;53.67
67738;BME280;54534;43.612;1.572;2023-04-27T02:47:55;99093.69;;;19.11;53.66
67738;BME280;54534;43.612;1.572;2023-04-27T02:50:20;99093.84;;;19.09;53.66
67738;BME280;54534;43.612;1.572;2023-04-27T02:52:45;99095.53;;;19.10;53.84
67738;BME280;54534;43.612;1.572;2023-04-27T02:55:11;99097.34;;;19.10;53.95
67738;BME280;54534;43.612;1.572;2023-04-27T02:57:37;99089.34;;;19.10;53.71
67738;BME280;54534;43.612;1.572;2023-04-27T03:00:03;99094.69;;;19.10;53.85
67738;BME280;54534;43.612;1.572;2023-04-27T03:02:30;99100.88;;;19.10;53.71
67738;BME280;54534;43.612;1.572;2023-04-27T03:04:56;99100.97;;;19.09;53.64
67738;BME280;54534;43.612;1.572;2023-04-27T03:07:23;99093.84;;;19.09;53.79
67738;BME280;54534;43.612;1.572;2023-04-27T03:09:48;99094.69;;;19.10;53.52
67738;BME280;54534;43.612;1.572;2023-04-27T03:12:14;99095.66;;;19.09;53.72
67738;BME280;54534;43.612;1.572;2023-04-27T03:14:39;99093.84;;;19.09;53.87
67738;BME280;54534;43.612;1.572;2023-04-27T03:17:05;99093.84;;;19.09;53.75
67738;BME280;54534;43.612;1.572;2023-04-27T03:19:30;99099.16;;;19.09;53.83
67738;BME280;54534;43.612;1.572;2023-04-27T03:21:56;99093.84;;;19.09;53.74
67738;BME280;54534;43.612;1.572;2023-04-27T03:24:21;99092.97;;;19.09;53.66
67738;BME280;54534;43.612;1.572;2023-04-27T03:26:49;99088.50;;;19.09;53.43
67738;BME280;54534;43.612;1.572;2023-04-27T03:29:15;99085.97;;;19.08;53.53
67738;BME280;54534;43.612;1.572;2023-04-27T03:31:40;99085.00;;;19.09;53.65
67738;BME280;54534;43.612;1.572;2023-04-27T03:34:06;99086.81;;;19.08;53.47
67738;BME280;54534;43.612;1.572;2023-04-27T03:36:31;99081.47;;;19.08;53.68
67738;BME280;54534;43.612;1.572;2023-04-27T03:38:56;99076.16;;;19.08;53.80
67738;BME280;54534;43.612;1.572;2023-04-27T03:41:22;99075.31;;;19.08;53.69
67738;BME280;54534;43.612;1.572;2023-04-27T03:43:47;99075.31;;;19.08;53.67
67738;BME280;54534;43.612;1.572;2023-04-27T03:46:13;99079.81;;;19.07;53.54
67738;BME280;54534;43.612;1.572;2023-04-27T03:48:38;99080.66;;;19.08;53.92
67738;BME280;54534;43.612;1.572;2023-04-27T03:51:04;99082.31;;;19.09;53.82
67738;BME280;54534;43.612;1.572;2023-04-27T03:53:29;99083.31;;;19.08;53.75
67738;BME280;54534;43.612;1.572;2023-04-27T03:55:55;99089.47;;;19.08;53.74
67738;BME280;54534;43.612;1.572;2023-04-27T03:58:20;99095.66;;;19.09;53.68
67738;BME280;54534;43.612;1.572;2023-04-27T04:00:45;99085.13;;;19.07;53.66
67738;BME280;54534;43.612;1.572;2023-04-27T04:03:11;99086.81;;;19.08;53.43
67738;BME280;54534;43.612;1.572;2023-04-27T04:05:36;99093.97;;;19.08;53.47
67738;BME280;54534;43.612;1.572;2023-04-27T04:08:01;99092.13;;;19.08;53.51
67738;BME280;54534;43.612;1.572;2023-04-27T04:10:27;99088.66;;;19.08;53.63
67738;BME280;54534;43.612;1.572;2023-04-27T04:12:53;99087.78;;;19.07;53.62
67738;BME280;54534;43.612;1.572;2023-04-27T04:15:18;99090.47;;;19.07;53.46
67738;BME280;54534;43.612;1.572;2023-04-27T04:17:44;99091.31;;;19.08;53.64
67738;BME280;54534;43.612;1.572;2023-04-27T04:20:11;99079.81;;;19.07;53.84
67738;BME280;54534;43.612;1.572;2023-04-27T04:22:37;99058.59;;;19.06;53.48
67738;BME280;54534;43.612;1.572;2023-04-27T04:25:03;99062.13;;;19.06;53.56
67738;BME280;54534;43.612;1.572;2023-04-27T04:27:28;99064.78;;;19.06;53.43
67738;BME280;54534;43.612;1.572;2023-04-27T04:29:54;99073.63;;;19.07;53.36
67738;BME280;54534;43.612;1.572;2023-04-27T04:32:20;99067.44;;;19.06;53.66
67738;BME280;54534;43.612;1.572;2023-04-27T04:34:50;99068.28;;;19.07;53.65
67738;BME280;54534;43.612;1.572;2023-04-27T04:37:15;99072.78;;;19.06;53.44
67738;BME280;54534;43.612;1.572;2023-04-27T04:39:43;99086.09;;;19.06;53.36
67738;BME280;54534;43.612;1.572;2023-04-27T04:42:08;99073.63;;;19.07;53.62
67738;BME280;54534;43.612;1.572;2023-04-27T04:44:34;99085.25;;;19.06;53.51
67738;BME280;54534;43.612;1.572;2023-04-27T04:46:59;99090.56;;;19.06;53.71
67738;BME280;54534;43.612;1.572;2023-04-27T04:49:25;99086.09;;;19.06;53.58
67738;BME280;54534;43.612;1.572;2023-04-27T04:51:50;99079.91;;;19.06;53.64
67738;BME280;54534;43.612;1.572;2023-04-27T04:54:15;99084.41;;;19.05;53.60
67738;BME280;54534;43.612;1.572;2023-04-27T04:56:41;99087.09;;;19.05;53.70
67738;BME280;54534;43.612;1.572;2023-04-27T04:59:06;99089.75;;;19.05;53.34
67738;BME280;54534;43.612;1.572;2023-04-27T05:01:32;99087.09;;;19.05;53.59
67738;BME280;54534;43.612;1.572;2023-04-27T05:03:58;99091.56;;;19.05;53.39
67738;BME280;54534;43.612;1.572;2023-04-27T05:06:23;99093.25;;;19.06;53.47
67738;BME280;54534;43.612;1.572;2023-04-27T05:08:48;99086.25;;;19.05;53.44
67738;BME280;54534;43.612;1.572;2023-04-27T05:11:14;99088.75;;;19.06;53.29
67738;BME280;54534;43.612;1.572;2023-04-27T05:13:39;99103.91;;;19.06;53.31
67738;BME280;54534;43.612;1.572;2023-04-27T05:16:05;99103.06;;;19.05;53.49
67738;BME280;54534;43.612;1.572;2023-04-27T05:18:32;99097.75;;;19.05;53.21
67738;BME280;54534;43.612;1.572;2023-04-27T05:20:58;99095.19;;;19.04;53.75
67738;BME280;54534;43.612;1.572;2023-04-27T05:23:23;99099.56;;;19.05;53.59
67738;BME280;54534;43.612;1.572;2023-04-27T05:25:48;99099.56;;;19.05;53.45
67738;BME280;54534;43.612;1.572;2023-04-27T05:28:14;99098.72;;;19.04;53.55
67738;BME280;54534;43.612;1.572;2023-04-27T05:30:40;99104.75;;;19.06;53.62
67738;BME280;54534;43.612;1.572;2023-04-27T05:33:05;99097.75;;;19.05;53.31
67738;BME280;54534;43.612;1.572;2023-04-27T05:35:31;99096.03;;;19.04;53.62
67738;BME280;54534;43.612;1.572;2023-04-27T05:37:57;99105.84;;;19.04;53.68
67738;BME280;54534;43.612;1.572;2023-04-27T05:40:23;99112.75;;;19.06;53.38
67738;BME280;54534;43.612;1.572;2023-04-27T05:42:48;99107.56;;;19.05;53.52
67738;BME280;54534;43.612;1.572;2023-04-27T05:45:14;99104.88;;;19.05;53.75
67738;BME280;54534;43.612;1.572;2023-04-27T05:47:40;99111.06;;;19.05;53.66
67738;BME280;54534;43.612;1.572;2023-04-27T05:50:06;99119.88;;;19.06;53.56
67738;BME280;54534;43.612;1.572;2023-04-27T05:52:31;99118.22;;;19.05;53.70
67738;BME280;54534;43.612;1.572;2023-04-27T05:54:57;99129.72;;;19.05;53.78
67738;BME280;54534;43.612;1.572;2023-04-27T05:57:23;99132.25;;;19.07;53.53
67738;BME280;54534;43.612;1.572;2023-04-27T05:59:50;99131.41;;;19.06;53.78
67738;BME280;54534;43.612;1.572;2023-04-27T06:02:16;99125.22;;;19.06;53.52
67738;BME280;54534;43.612;1.572;2023-04-27T06:04:41;99123.41;;;19.06;53.60
67738;BME280;54534;43.612;1.572;2023-04-27T06:07:08;99122.56;;;19.06;53.56
67738;BME280;54534;43.612;1.572;2023-04-27T06:09:33;99119.88;;;19.06;53.63
67738;BME280;54534;43.612;1.572;2023-04-27T06:11:59;99114.56;;;19.06;53.70
67738;BME280;54534;43.612;1.572;2023-04-27T06:14:24;99118.94;;;19.07;53.94
67738;BME280;54534;43.612;1.572;2023-04-27T06:16:50;99119.78;;;19.07;53.73
67738;BME280;54534;43.612;1.572;2023-04-27T06:19:15;99121.59;;;19.07;53.83
67738;BME280;54534;43.612;1.572;2023-04-27T06:21:41;99110.06;;;19.06;53.71
67738;BME280;54534;43.612;1.572;2023-04-27T06:24:06;99115.41;;;19.06;53.98
67738;BME280;54534;43.612;1.572;2023-04-27T06:26:31;99117.22;;;19.06;53.78
67738;BME280;54534;43.612;1.572;2023-04-27T06:28:57;99120.72;;;19.06;53.84
67738;BME280;54534;43.612;1.572;2023-04-27T06:31:24;99126.91;;;19.07;53.84
67738;BME280;54534;43.612;1.572;2023-04-27T06:33:49;99124.25;;;19.07;54.11
67738;BME280;54534;43.612;1.572;2023-04-27T06:36:15;99112.63;;;19.08;54.23
67738;BME280;54534;43.612;1.572;2023-04-27T06:38:40;99120.47;;;19.09;54.12
67738;BME280;54534;43.612;1.572;2023-04-27T06:41:06;99121.34;;;19.10;54.31
67738;BME280;54534;43.612;1.572;2023-04-27T06:43:31;99117.81;;;19.09;54.46
67738;BME280;54534;43.612;1.572;2023-04-27T06:45:57;99125.81;;;19.09;54.18
67738;BME280;54534;43.612;1.572;2023-04-27T06:48:22;99123.00;;;19.11;54.29
67738;BME280;54534;43.612;1.572;2023-04-27T06:50:48;99126.66;;;19.10;54.42
67738;BME280;54534;43.612;1.572;2023-04-27T06:53:13;99121.19;;;19.11;54.29
67738;BME280;54534;43.612;1.572;2023-04-27T06:55:38;99120.34;;;19.11;54.37
67738;BME280;54534;43.612;1.572;2023-04-27T06:58:04;99120.47;;;19.09;54.53
67738;BME280;54534;43.612;1.572;2023-04-27T07:00:30;99113.19;;;19.11;54.16
67738;BME280;54534;43.612;1.572;2023-04-27T07:02:56;99105.34;;;19.10;54.16
67738;BME280;54534;43.612;1.572;2023-04-27T07:05:21;99105.34;;;19.10;54.31
67738;BME280;54534;43.612;1.572;2023-04-27T07:07:47;99112.34;;;19.11;53.85
67738;BME280;54534;43.612;1.572;2023-04-27T07:10:12;99103.38;;;19.12;54.01
67738;BME280;54534;43.612;1.572;2023-04-27T07:12:38;99095.53;;;19.10;53.91
67738;BME280;54534;43.612;1.572;2023-04-27T07:15:04;99093.69;;;19.11;53.92
67738;BME280;54534;43.612;1.572;2023-04-27T07:17:31;99091.03;;;19.11;53.88
67738;BME280;54534;43.612;1.572;2023-04-27T07:19:57;99088.38;;;19.11;53.96
67738;BME280;54534;43.612;1.572;2023-04-27T07:22:22;99083.03;;;19.11;53.99
67738;BME280;54534;43.612;1.572;2023-04-27T07:24:48;99084.75;;;19.12;54.06
67738;BME280;54534;43.612;1.572;2023-04-27T07:27:13;99085.69;;;19.11;54.15
67738;BME280;54534;43.612;1.572;2023-04-27T07:29:39;99085.69;;;19.11;54.06
67738;BME280;54534;43.612;1.572;2023-04-27T07:32:06;99086.56;;;19.11;54.20
67738;BME280;54534;43.612;1.572;2023-04-27T07:34:31;99077.69;;;19.11;54.11
67738;BME280;54534;43.612;1.572;2023-04-27T07:36:57;99075.03;;;19.11;54.41
67738;BME280;54534;43.612;1.572;2023-04-27T07:39:22;99080.38;;;19.11;54.01
67738;BME280;54534;43.612;1.572;2023-04-27T07:41:48;99083.03;;;19.11;54.15
67738;BME280;54534;43.612;1.572;2023-04-27T07:44:15;99084.88;;;19.10;53.95
67738;BME280;54534;43.612;1.572;2023-04-27T07:46:41;99088.38;;;19.11;54.36
67738;BME280;54534;43.612;1.572;2023-04-27T07:49:06;99081.22;;;19.11;54.18
67738;BME280;54534;43.612;1.572;2023-04-27T07:51:32;99081.22;;;19.11;54.06
67738;BME280;54534;43.612;1.572;2023-04-27T07:53:59;99073.22;;;19.11;53.93
67738;BME280;54534;43.612;1.572;2023-04-27T07:56:24;99076.75;;;19.12;54.15
67738;BME280;54534;43.612;1.572;2023-04-27T07:58:50;99068.75;;;19.12;53.93
67738;BME280;54534;43.612;1.572;2023-04-27T08:01:15;99071.41;;;19.12;54.17
67738;BME280;54534;43.612;1.572;2023-04-27T08:03:41;99065.22;;;19.11;54.11
67738;BME280;54534;43.612;1.572;2023-04-27T08:06:06;99067.91;;;19.11;54.01
67738;BME280;54534;43.612;1.572;2023-04-27T08:08:32;99074.22;;;19.10;54.24
67738;BME280;54534;43.612;1.572;2023-04-27T08:10:57;99072.50;;;19.09;54.12
67738;BME280;54534;43.612;1.572;2023-04-27T08:13:23;99084.03;;;19.10;54.13
67738;BME280;54534;43.612;1.572;2023-04-27T08:15:49;99084.03;;;19.10;54.25
67738;BME280;54534;43.612;1.572;2023-04-27T08:18:15;99077.84;;;19.09;54.26
67738;BME280;54534;43.612;1.572;2023-04-27T08:20:42;99085.84;;;19.09;54.22
67738;BME280;54534;43.612;1.572;2023-04-27T08:23:07;99078.69;;;19.10;54.30
67738;BME280;54534;43.612;1.572;2023-04-27T08:25:35;99082.22;;;19.10;54.04
67738;BME280;54534;43.612;1.572;2023-04-27T08:28:01;99081.38;;;19.10;54.17
67738;BME280;54534;43.612;1.572;2023-04-27T08:30:26;99083.03;;;19.11;54.06
67738;BME280;54534;43.612;1.572;2023-04-27T08:32:51;99077.84;;;19.09;54.13
67738;BME280;54534;43.612;1.572;2023-04-27T08:35:18;99068.88;;;19.10;54.10
67738;BME280;54534;43.612;1.572;2023-04-27T08:37:44;99069.72;;;19.11;54.19
67738;BME280;54534;43.612;1.572;2023-04-27T08:40:10;99070.56;;;19.11;54.24
67738;BME280;54534;43.612;1.572;2023-04-27T08:42:35;99077.59;;;19.12;54.29
67738;BME280;54534;43.612;1.572;2023-04-27T08:45:01;99065.22;;;19.11;54.30
67738;BME280;54534;43.612;1.572;2023-04-27T08:47:26;99072.25;;;19.12;54.45
67738;BME280;54534;43.612;1.572;2023-04-27T08:49:52;99069.44;;;19.14;54.30
67738;BME280;54534;43.612;1.572;2023-04-27T08:52:18;99064.97;;;19.15;54.36
67738;BME280;54534;43.612;1.572;2023-04-27T08:54:43;99068.50;;;19.15;54.08
67738;BME280;54534;43.612;1.572;2023-04-27T08:57:12;99066.69;;;19.16;54.37
67738;BME280;54534;43.612;1.572;2023-04-27T08:59:41;99069.44;;;19.14;54.43
67738;BME280;54534;43.612;1.572;2023-04-27T09:02:21;99064.97;;;19.15;54.15
67738;BME280;54534;43.612;1.572;2023-04-27T09:04:46;99064.97;;;19.15;54.33
67738;BME280;54534;43.612;1.572;2023-04-27T09:07:13;99068.50;;;19.15;54.57
67738;BME280;54534;43.612;1.572;2023-04-27T09:09:38;99068.50;;;19.15;54.30
67738;BME280;54534;43.612;1.572;2023-04-27T09:14:39;99077.34;;;19.16;54.51
67738;BME280;54534;43.612;1.572;2023-04-27T09:17:05;99082.53;;;19.17;54.40
67738;BME280;54534;43.612;1.572;2023-04-27T09:19:30;99079.84;;;19.17;54.41
67738;BME280;54534;43.612;1.572;2023-04-27T09:24:28;99076.34;;;19.17;54.51
67738;BME280;54534;43.612;1.572;2023-04-27T09:26:53;99076.34;;;19.17;54.26
67738;BME280;54534;43.612;1.572;2023-04-27T09:29:19;99076.34;;;19.17;54.37
67738;BME280;54534;43.612;1.572;2023-04-27T09:31:44;99076.25;;;19.18;54.30
67738;BME280;54534;43.612;1.572;2023-04-27T09:34:10;99075.25;;;19.19;54.54
67738;BME280;54534;43.612;1.572;2023-04-27T09:36:35;99075.38;;;19.18;54.48
67738;BME280;54534;43.612;1.572;2023-04-27T09:39:02;99079.63;;;19.20;54.33
67738;BME280;54534;43.612;1.572;2023-04-27T09:41:31;99071.78;;;19.19;54.42
67738;BME280;54534;43.612;1.572;2023-04-27T09:43:57;99073.44;;;19.20;54.40
67738;BME280;54534;43.612;1.572;2023-04-27T09:46:26;99063.66;;;19.20;54.38
67738;BME280;54534;43.612;1.572;2023-04-27T09:48:53;99059.16;;;19.21;54.57
67738;BME280;54534;43.612;1.572;2023-04-27T09:51:19;99048.50;;;19.21;54.70
67738;BME280;54534;43.612;1.572;2023-04-27T09:53:53;99050.16;;;19.22;54.44
67738;BME280;54534;43.612;1.572;2023-04-27T10:01:41;99043.03;;;19.22;54.18
67738;BME280;54534;43.612;1.572;2023-04-27T10:09:23;99038.69;;;19.21;54.72
67738;BME280;54534;43.612;1.572;2023-04-27T10:11:49;99035.19;;;19.21;54.52
67738;BME280;54534;43.612;1.572;2023-04-27T10:14:17;99031.50;;;19.22;54.62
67738;BME280;54534;43.612;1.572;2023-04-27T10:19:09;99042.91;;;19.24;54.90
67738;BME280;54534;43.612;1.572;2023-04-27T10:21:35;99045.56;;;19.24;54.66
67738;BME280;54534;43.612;1.572;2023-04-27T10:24:06;99043.72;;;19.25;54.85
67738;BME280;54534;43.612;1.572;2023-04-27T10:26:35;99037.44;;;19.26;54.78
67738;BME280;54534;43.612;1.572;2023-04-27T10:29:08;99029.44;;;19.26;54.70
67738;BME280;54534;43.612;1.572;2023-04-27T10:31:34;99028.47;;;19.27;54.81
67738;BME280;54534;43.612;1.572;2023-04-27T10:34:07;99024.81;;;19.28;54.72
67738;BME280;54534;43.612;1.572;2023-04-27T10:36:38;99016.81;;;19.28;54.97
67738;BME280;54534;43.612;1.572;2023-04-27T10:39:20;99016.81;;;19.28;54.64
67738;BME280;54534;43.612;1.572;2023-04-27T10:41:54;99016.81;;;19.28;54.85
67738;BME280;54534;43.612;1.572;2023-04-27T10:44:28;99015.00;;;19.28;54.78
67738;BME280;54534;43.612;1.572;2023-04-27T10:46:56;99019.47;;;19.28;55.01
67738;BME280;54534;43.612;1.572;2023-04-27T10:49:22;99023.00;;;19.28;54.91
67738;BME280;54534;43.612;1.572;2023-04-27T10:51:51;99026.50;;;19.29;54.96
67738;BME280;54534;43.612;1.572;2023-04-27T10:54:17;99020.19;;;19.30;55.00
67738;BME280;54534;43.612;1.572;2023-04-27T10:56:43;99027.22;;;19.31;54.95
67738;BME280;54534;43.612;1.572;2023-04-27T10:59:09;99023.59;;;19.32;55.22
67738;BME280;54534;43.612;1.572;2023-04-27T11:01:35;99027.81;;;19.34;55.68
67738;BME280;54534;43.612;1.572;2023-04-27T11:04:01;99028.50;;;19.37;55.55
67738;BME280;54534;43.612;1.572;2023-04-27T11:06:28;99023.03;;;19.38;55.40
67738;BME280;54534;43.612;1.572;2023-04-27T11:08:55;99024.75;;;19.39;55.48
67738;BME280;54534;43.612;1.572;2023-04-27T11:11:21;99031.75;;;19.40;55.70
67738;BME280;54534;43.612;1.572;2023-04-27T11:13:48;99028.97;;;19.42;55.52
67738;BME280;54534;43.612;1.572;2023-04-27T11:16:14;99029.81;;;19.42;55.64
67738;BME280;54534;43.612;1.572;2023-04-27T11:18:40;99021.66;;;19.44;55.27
67738;BME280;54534;43.612;1.572;2023-04-27T11:21:15;99012.69;;;19.45;55.58
67738;BME280;54534;43.612;1.572;2023-04-27T11:23:42;99022.50;;;19.44;55.14
67738;BME280;54534;43.612;1.572;2023-04-27T11:26:19;99018.84;;;19.45;55.02
67738;BME280;54534;43.612;1.572;2023-04-27T11:29:02;99019.69;;;19.46;55.15
67738;BME280;54534;43.612;1.572;2023-04-27T11:31:47;99014.38;;;19.46;55.13
67738;BME280;54534;43.612;1.572;2023-04-27T11:34:20;99009.88;;;19.47;55.19
67738;BME280;54534;43.612;1.572;2023-04-27T11:39:32;98997.25;;;19.49;55.42
67738;BME280;54534;43.612;1.572;2023-04-27T11:42:17;98999.94;;;19.49;55.20
67738;BME280;54534;43.612;1.572;2023-04-27T11:44:56;99005.97;;;19.51;55.43
67738;BME280;54534;43.612;1.572;2023-04-27T11:47:23;98995.28;;;19.51;55.21
67738;BME280;54534;43.612;1.572;2023-04-27T11:49:58;99005.00;;;19.52;55.16
67738;BME280;54534;43.612;1.572;2023-04-27T11:52:34;99005.84;;;19.52;55.18
67738;BME280;54534;43.612;1.572;2023-04-27T11:55:01;99007.66;;;19.52;55.12
67738;BME280;54534;43.612;1.572;2023-04-27T11:57:32;99002.06;;;19.55;55.27
67738;BME280;54534;43.612;1.572;2023-04-27T11:59:58;98998.69;;;19.53;55.25
67738;BME280;54534;43.612;1.572;2023-04-27T12:02:25;98995.03;;;19.54;55.03
67738;BME280;54534;43.612;1.572;2023-04-27T12:04:51;98993.09;;;19.56;55.30
67738;BME280;54534;43.612;1.572;2023-04-27T12:07:18;98985.09;;;19.56;55.32
67738;BME280;54534;43.612;1.572;2023-04-27T12:09:44;98984.09;;;19.57;55.27
67738;BME280;54534;43.612;1.572;2023-04-27T12:12:10;98992.81;;;19.59;55.63
67738;BME280;54534;43.612;1.572;2023-04-27T12:14:37;98988.31;;;19.60;55.73
67738;BME280;54534;43.612;1.572;2023-04-27T12:17:03;98995.34;;;19.61;55.86
67738;BME280;54534;43.612;1.572;2023-04-27T12:19:28;98989.00;;;19.62;55.66
67738;BME280;54534;43.612;1.572;2023-04-27T12:21:54;98984.41;;;19.64;55.70
67738;BME280;54534;43.612;1.572;2023-04-27T12:24:20;98989.75;;;19.64;55.83
67738;BME280;54534;43.612;1.572;2023-04-27T12:26:47;98992.28;;;19.65;56.05
67738;BME280;54534;43.612;1.572;2023-04-27T12:29:12;98993.13;;;19.66;56.19
67738;BME280;54534;43.612;1.572;2023-04-27T12:31:38;98988.47;;;19.68;56.11
67738;BME280;54534;43.612;1.572;2023-04-27T12:34:03;98990.31;;;19.67;56.25
67738;BME280;54534;43.612;1.572;2023-04-27T12:36:28;98986.66;;;19.69;56.25
67738;BME280;54534;43.612;1.572;2023-04-27T12:38:59;98991.84;;;19.70;56.31
67738;BME280;54534;43.612;1.572;2023-04-27T12:41:24;98986.50;;;19.70;56.36
67738;BME280;54534;43.612;1.572;2023-04-27T12:43:50;98990.03;;;19.71;56.38
67738;BME280;54534;43.612;1.572;2023-04-27T12:46:16;98984.69;;;19.71;56.53
67738;BME280;54534;43.612;1.572;2023-04-27T12:48:44;98980.06;;;19.73;56.78
67738;BME280;54534;43.612;1.572;2023-04-27T12:51:11;98979.94;;;19.74;56.70
67738;BME280;54534;43.612;1.572;2023-04-27T12:53:37;98977.13;;;19.76;56.74
67738;BME280;54534;43.612;1.572;2023-04-27T12:56:02;98980.66;;;19.76;56.74
67738;BME280;54534;43.612;1.572;2023-04-27T12:58:29;98978.81;;;19.77;56.67
67738;BME280;54534;43.612;1.572;2023-04-27T13:00:56;98980.50;;;19.78;56.94
67738;BME280;54534;43.612;1.572;2023-04-27T13:03:22;98979.53;;;19.79;56.97
67738;BME280;54534;43.612;1.572;2023-04-27T13:05:48;98985.56;;;19.81;56.85
67738;BME280;54534;43.612;1.572;2023-04-27T13:08:13;98983.75;;;19.82;56.96
67738;BME280;54534;43.612;1.572;2023-04-27T13:10:39;98983.59;;;19.83;57.13
67738;BME280;54534;43.612;1.572;2023-04-27T13:13:05;98980.81;;;19.85;57.01
67738;BME280;54534;43.612;1.572;2023-04-27T13:15:32;98978.97;;;19.85;56.89